Portada
METAR-TAF:

METAR-TAF

Aeroports :

Kuala Terengganu, Malàisia

latitud: 05-22-53N, longitud: 103-06-17E, altitud: 6 m

Observació

L'informe es va fer fa 58 minuts, a les 17:00 UTC
Vent 6 kt del Nord-Est amb ràfegues de 17 kt, variant entre Nord i Est
Temperatura 27°C
Humitat 84%
Pressió 1015 hPa
Visibilitat 10 km o més
Núvols disperses a una alçada de 2200 ft

METAR: WMKN 211700Z 05006G17KT 350V100 9999 SCT022 27/24 Q1015

Hora: 01:58 (17:58 UTC)

Pronòstic

L'informe es va fer fa 58 minuts, a les 17:00 UTC
Pronòstic vàlid del 21 a les 18 UTC al 22 a les 18 UTC
Vent 6 kt del Est/Nord-Est
Visibilitat 10 km o més
Escasses núvols a una alçada de 2200 ft
Evolucionant progressivament
l' 21 a les 21 UTC al 21 a les 23 UTC
Vent 7 kt del Est/Nord-Est amb ràfegues de 20 kt
Escasses núvols a una alçada de 1800 ft
Evolucionant progressivament
l' 22 a les 02 UTC al 22 a les 04 UTC
Vent 7 kt del Nord-Est

TAF: WMKN 211700Z 2118/2218 06006KT 9999 FEW022 BECMG 2121/2123 06007G20KT FEW018 BECMG 2202/2204 05007KT

Observacions i pronòstics meteorològics de més de 4000 aeroports (METAR i TAF).

Les estacions disponibles són els punts grocs i vermells al mapa.

Posi el ratolí al punt desitjat per veure el nom de l'estació.

Feu clic per veure les observacions i els pronòstics meteorològics.

Per canviar el mapa: feu clic els botons verds amb una creu de color negre per apropar; al botó verd amb un guió per allunyar la imatge; o en les fletxes verdes per a mapes adjacents.


METAR-TAF: